Time;durP1;ratioP1;P1;durP2;ratioP2;P2;SDS_P1;SDS_P2;PMS_P1;PMS_P2;Temp;Humidity;BMP_temperature;BMP_pressure;BME280_temperature;BME280_humidity;BME280_pressure;Samples;Min_cycle;Max_cycle;Signal;HPM_P1;HPM_P2
2022/04/22 00:00:06;;;;;;;13.95;8.82;;;;;;;6.25;62.22;99212.84;4378542;32;35225;-67
2022/04/22 00:02:33;;;;;;;12.05;8.30;;;;;;;6.93;60.60;99197.06;4377699;32;34175;-65
2022/04/22 00:05:02;;;;;;;13.18;8.40;;;;;;;7.27;59.60;99206.13;4378097;32;33801;-66
2022/04/22 00:07:29;;;;;;;13.02;8.65;;;;;;;7.27;59.87;99200.72;4377870;32;33951;-66
2022/04/22 00:09:57;;;;;;;11.77;8.52;;;;;;;7.64;58.90;99199.50;4378006;32;35292;-66
2022/04/22 00:12:25;;;;;;;12.75;8.68;;;;;;;7.71;58.84;99197.47;4378759;32;34649;-65
2022/04/22 00:14:52;;;;;;;13.93;8.23;;;;;;;7.82;58.20;99191.19;4378365;32;34334;-66
2022/04/22 00:17:19;;;;;;;12.15;8.13;;;;;;;8.06;57.36;99188.34;4377991;32;33976;-65
2022/04/22 00:19:47;;;;;;;11.35;7.65;;;;;;;7.90;57.93;99187.25;4378432;32;34002;-67
2022/04/22 00:22:14;;;;;;;11.50;8.07;;;;;;;8.27;57.35;99184.03;4364411;32;33989;-66
2022/04/22 00:24:42;;;;;;;13.55;7.97;;;;;;;7.89;58.25;99183.75;4378450;32;33639;-65
2022/04/22 00:27:09;;;;;;;12.57;8.85;;;;;;;8.12;57.20;99173.81;4378207;32;33922;-65
2022/04/22 00:29:37;;;;;;;13.25;8.48;;;;;;;8.71;55.67;99182.28;4378049;32;35050;-67
2022/04/22 00:32:05;;;;;;;12.02;8.38;;;;;;;8.10;57.51;99178.66;4378146;32;33828;-66
2022/04/22 00:34:32;;;;;;;13.25;8.30;;;;;;;8.32;55.77;99179.53;4378276;32;33595;-65
2022/04/22 00:37:00;;;;;;;10.77;7.35;;;;;;;8.28;56.72;99174.88;4377863;32;33560;-66
2022/04/22 00:39:28;;;;;;;12.77;8.00;;;;;;;8.27;56.63;99163.25;4378546;32;34322;-65
2022/04/22 00:41:55;;;;;;;13.32;8.60;;;;;;;8.11;57.66;99161.38;4378394;32;34017;-65
2022/04/22 00:44:23;;;;;;;11.70;8.15;;;;;;;7.98;57.82;99160.66;4378214;32;34276;-66
2022/04/22 00:46:51;;;;;;;11.68;7.55;;;;;;;8.52;56.76;99164.72;4377699;32;34579;-67
2022/04/22 00:49:18;;;;;;;13.07;8.20;;;;;;;8.48;57.52;99150.06;4378234;32;33985;-65
2022/04/22 00:51:46;;;;;;;13.48;8.45;;;;;;;8.28;57.96;99156.78;4378019;32;34260;-65
2022/04/22 00:54:13;;;;;;;12.13;7.78;;;;;;;8.56;56.59;99147.72;4378283;32;33678;-66
2022/04/22 00:56:41;;;;;;;11.38;8.00;;;;;;;8.63;56.52;99152.97;4378226;32;33953;-66
2022/04/22 00:59:09;;;;;;;12.45;8.60;;;;;;;8.39;56.94;99138.81;4377697;32;34248;-66
2022/04/22 01:01:38;;;;;;;10.68;7.75;;;;;;;8.24;58.02;99142.13;4364798;32;34631;-66
2022/04/22 01:09:47;;;;;;;12.65;7.85;;;;;;;8.35;57.96;99134.97;4365680;32;35184;-68
2022/04/22 01:12:15;;;;;;;11.07;7.45;;;;;;;8.33;57.81;99129.00;4378137;32;34039;-65
2022/04/22 01:14:43;;;;;;;13.65;8.77;;;;;;;8.49;57.78;99132.75;4377499;32;33745;-65
2022/04/22 01:17:11;;;;;;;11.60;7.78;;;;;;;8.01;58.82;99126.91;4377453;32;33720;-65
2022/04/22 01:19:39;;;;;;;11.30;7.97;;;;;;;8.79;57.15;99121.50;4376844;32;34119;-66
2022/04/22 01:22:07;;;;;;;14.90;8.82;;;;;;;8.04;59.93;99125.63;4377909;32;32609;-67
2022/04/22 01:24:35;;;;;;;13.88;8.48;;;;;;;8.31;58.44;99118.44;4377906;32;34186;-65
2022/04/22 01:27:04;;;;;;;11.52;7.93;;;;;;;8.39;58.07;99126.13;4378262;32;33895;-65
2022/04/22 01:29:32;;;;;;;15.05;9.85;;;;;;;8.65;57.70;99115.66;4377749;32;34197;-65
2022/04/22 01:32:00;;;;;;;13.18;9.50;;;;;;;8.66;57.64;99117.31;4377847;32;33913;-65
2022/04/22 01:34:28;;;;;;;16.10;10.13;;;;;;;8.66;57.70;99108.38;4377420;32;33455;-67
2022/04/22 01:36:56;;;;;;;11.90;8.63;;;;;;;8.80;57.43;99106.91;4377399;32;33993;-66
2022/04/22 01:39:24;;;;;;;14.77;9.10;;;;;;;8.61;57.75;99099.13;4377843;32;34189;-65
2022/04/22 01:41:51;;;;;;;13.23;8.73;;;;;;;8.39;58.54;99100.97;4377823;32;34142;-67
2022/04/22 01:44:19;;;;;;;15.18;10.07;;;;;;;8.50;58.78;99097.34;4377543;32;33900;-65
2022/04/22 01:46:46;;;;;;;15.18;10.15;;;;;;;8.40;58.63;99091.78;4377806;32;33701;-66
2022/04/22 01:49:14;;;;;;;20.70;11.57;;;;;;;8.58;58.04;99082.59;4377618;32;34307;-67
2022/04/22 01:51:42;;;;;;;18.40;11.88;;;;;;;7.87;59.82;99075.12;4373228;32;33511;-66
2022/04/22 01:54:10;;;;;;;17.02;10.88;;;;;;;8.05;59.22;99079.44;4377784;32;34406;-68
2022/04/22 01:56:37;;;;;;;16.33;9.48;;;;;;;8.34;58.49;99072.00;4377631;32;33888;-66
2022/04/22 01:59:05;;;;;;;14.65;9.50;;;;;;;8.77;57.60;99061.47;4377010;32;33941;-66
2022/04/22 02:01:32;;;;;;;13.40;9.23;;;;;;;8.93;57.09;99049.72;4377555;32;34107;-65
2022/04/22 02:04:00;;;;;;;13.05;8.38;;;;;;;8.94;57.49;99070.31;4377367;32;33577;-67
2022/04/22 02:06:28;;;;;;;13.70;9.50;;;;;;;8.82;57.87;99066.91;4377138;32;34014;-67
2022/04/22 02:08:55;;;;;;;16.98;10.60;;;;;;;8.25;59.33;99062.69;4377369;32;34990;-65
2022/04/22 02:11:23;;;;;;;16.15;10.13;;;;;;;8.60;58.48;99061.53;4377464;32;34098;-68
2022/04/22 02:13:50;;;;;;;16.30;10.77;;;;;;;8.55;58.46;99065.00;4376105;32;34256;-66
2022/04/22 02:16:18;;;;;;;13.88;9.70;;;;;;;8.33;58.98;99056.84;4377314;32;34073;-65
2022/04/22 02:18:45;;;;;;;16.90;10.68;;;;;;;7.73;57.63;99052.22;4377412;32;35004;-64
2022/04/22 02:21:13;;;;;;;15.32;9.50;;;;;;;8.60;54.88;99046.13;4377128;32;34058;-67
2022/04/22 02:23:40;;;;;;;16.80;10.80;;;;;;;8.47;55.41;99045.69;4377050;32;34400;-68
2022/04/22 02:26:08;;;;;;;15.32;9.98;;;;;;;8.42;57.46;99049.13;4377349;32;34050;-65
2022/04/22 02:28:35;;;;;;;12.50;8.48;;;;;;;8.25;57.95;99051.06;4376514;32;34206;-64
2022/04/22 02:31:06;;;;;;;14.63;8.52;;;;;;;8.07;56.50;99052.97;4378178;32;34925;-67
2022/04/22 02:33:36;;;;;;;11.43;7.72;;;;;;;8.89;52.60;99053.19;4379144;32;33722;-65
2022/04/22 02:36:04;;;;;;;13.43;7.80;;;;;;;9.27;51.06;99049.50;4378766;32;34661;-68
2022/04/22 02:38:32;;;;;;;12.45;7.65;;;;;;;9.41;50.41;99052.59;4378832;32;34306;-65
2022/04/22 02:46:32;;;;;;;10.23;7.12;;;;;;;9.50;51.71;99037.47;4379003;32;34801;-68
2022/04/22 02:49:00;;;;;;;14.90;9.00;;;;;;;9.70;49.44;99034.13;4379167;32;34284;-65
2022/04/22 02:51:28;;;;;;;13.77;8.38;;;;;;;9.10;52.17;99027.97;4378808;32;34611;-64
2022/04/22 02:53:56;;;;;;;12.13;6.95;;;;;;;9.91;48.99;99023.41;4378826;32;33349;-65
2022/04/22 02:56:24;;;;;;;10.40;6.90;;;;;;;10.40;47.65;99021.22;4377773;32;33393;-68
2022/04/22 02:58:52;;;;;;;11.82;7.57;;;;;;;10.16;48.54;99022.75;4378766;32;35018;-68
2022/04/22 03:01:19;;;;;;;12.50;7.40;;;;;;;10.03;50.67;99024.03;4365178;32;34478;-65
2022/04/22 03:03:47;;;;;;;10.95;6.87;;;;;;;10.30;47.29;99015.75;4378320;32;33650;-66
2022/04/22 03:06:15;;;;;;;12.57;7.35;;;;;;;10.09;48.12;99014.84;4365419;32;34023;-68
2022/04/22 03:08:43;;;;;;;11.50;7.12;;;;;;;10.24;49.32;99014.09;4378643;32;33761;-68
2022/04/22 03:11:10;;;;;;;9.88;7.00;;;;;;;10.36;49.37;99014.72;4378248;32;34851;-67
2022/04/22 03:13:39;;;;;;;10.82;7.00;;;;;;;10.51;47.22;99003.09;4379098;32;33525;-64
2022/04/22 03:16:07;;;;;;;9.13;6.57;;;;;;;10.53;47.42;99016.41;4378744;32;33729;-65
2022/04/22 03:18:34;;;;;;;12.45;7.60;;;;;;;10.58;47.42;99008.28;4378781;32;34317;-63
2022/04/22 03:21:02;;;;;;;10.30;7.03;;;;;;;10.04;49.88;98996.66;4378286;32;34457;-64
2022/04/22 03:23:30;;;;;;;9.68;6.65;;;;;;;9.69;49.29;98999.16;4378779;32;34698;-64
2022/04/22 03:25:58;;;;;;;9.93;6.95;;;;;;;10.30;47.88;98993.25;4378496;32;33693;-63
2022/04/22 03:28:26;;;;;;;10.55;6.85;;;;;;;10.02;49.87;98988.00;4378715;32;34993;-64
2022/04/22 03:30:53;;;;;;;9.65;6.62;;;;;;;10.18;48.92;98994.28;4378944;32;33571;-64
2022/04/22 03:33:21;;;;;;;9.55;6.28;;;;;;;10.76;46.55;98986.09;4378681;32;33944;-65
2022/04/22 03:35:50;;;;;;;11.30;6.75;;;;;;;10.71;46.85;98985.25;4377975;32;34104;-64
2022/04/22 03:38:19;;;;;;;10.73;6.47;;;;;;;10.92;45.98;98976.06;4378795;32;34291;-64
2022/04/22 03:40:51;;;;;;;11.45;6.40;;;;;;;10.52;46.69;98979.50;4378294;32;33964;-64
2022/04/22 03:43:20;;;;;;;10.65;6.65;;;;;;;10.67;47.62;98982.28;4378232;32;33435;-64
2022/04/22 03:45:48;;;;;;;10.25;6.55;;;;;;;10.71;47.23;98985.25;4378406;32;33998;-64
2022/04/22 03:48:16;;;;;;;10.55;6.32;;;;;;;10.79;46.87;98984.72;4378279;32;34285;-65
2022/04/22 03:50:44;;;;;;;10.18;6.65;;;;;;;10.96;46.11;98979.06;4378233;32;34741;-63
2022/04/22 03:53:11;;;;;;;9.32;6.45;;;;;;;10.82;45.84;98981.47;4378293;32;33523;-63
2022/04/22 03:55:40;;;;;;;8.85;6.47;;;;;;;10.73;46.02;98980.37;4378615;32;34003;-65
2022/04/22 03:58:11;;;;;;;10.23;6.85;;;;;;;11.05;45.43;98983.66;4378531;32;34193;-65
2022/04/22 04:00:53;;;;;;;9.93;6.60;;;;;;;11.07;45.16;98989.63;4378464;32;34745;-63
2022/04/22 04:03:23;;;;;;;9.80;6.47;;;;;;;11.18;44.92;98986.94;4378097;32;34385;-68
2022/04/22 04:05:51;;;;;;;8.85;6.40;;;;;;;10.37;47.40;98989.25;4378481;32;34780;-67
2022/04/22 04:08:22;;;;;;;8.90;6.15;;;;;;;10.74;46.45;98984.72;4378205;32;33974;-65
2022/04/22 04:16:22;;;;;;;10.45;6.30;;;;;;;11.24;44.81;98981.22;4384092;32;33768;-67
2022/04/22 04:18:50;;;;;;;11.98;6.82;;;;;;;11.19;45.01;98973.09;4381087;32;34391;-62
2022/04/22 04:24:04;;;;;;;9.80;6.20;;;;;;;11.11;45.06;98991.81;4378160;32;33462;-65
2022/04/22 04:26:33;;;;;;;10.57;6.47;;;;;;;10.95;45.84;98988.25;4378209;32;34043;-68
2022/04/22 04:29:00;;;;;;;10.35;6.55;;;;;;;11.14;45.12;98980.41;4378203;32;33942;-67
2022/04/22 04:31:28;;;;;;;9.70;7.00;;;;;;;11.38;44.48;98976.06;4378283;32;34790;-69
2022/04/22 04:33:56;;;;;;;11.15;6.62;;;;;;;11.05;45.11;98986.38;4378306;32;33076;-74
2022/04/22 04:36:23;;;;;;;10.77;6.80;;;;;;;10.98;45.34;98987.75;4378246;32;33637;-69
2022/04/22 04:38:51;;;;;;;12.05;7.28;;;;;;;10.39;47.20;98986.28;4375562;32;34208;-67
2022/04/22 04:41:18;;;;;;;10.73;6.90;;;;;;;11.01;45.25;98984.47;4370211;32;34730;-67
2022/04/22 04:43:46;;;;;;;10.55;7.10;;;;;;;10.61;46.32;98986.06;4367981;32;34498;-66
2022/04/22 04:46:14;;;;;;;9.77;6.53;;;;;;;10.50;46.62;98984.41;4361667;32;33929;-67
2022/04/22 04:48:41;;;;;;;10.38;6.68;;;;;;;10.19;47.87;98981.53;4362114;32;34233;-66
2022/04/22 04:51:09;;;;;;;11.52;6.50;;;;;;;10.38;47.19;98984.63;4369408;32;34099;-66
2022/04/22 04:53:36;;;;;;;11.20;6.95;;;;;;;10.44;47.28;98994.41;4375761;32;32947;-67
2022/04/22 04:56:04;;;;;;;12.15;7.57;;;;;;;10.84;46.10;98990.16;4363241;32;34042;-66
2022/04/22 04:58:32;;;;;;;12.80;7.65;;;;;;;10.87;45.88;98986.91;4376203;32;34290;-66
2022/04/22 05:00:59;;;;;;;10.38;7.43;;;;;;;10.77;46.52;98982.28;4376660;32;34260;-64
2022/04/22 05:03:27;;;;;;;11.68;7.30;;;;;;;10.94;46.41;98992.88;4376677;32;34204;-65
2022/04/22 05:05:55;;;;;;;11.52;7.53;;;;;;;10.15;48.44;99000.25;4376694;32;34121;-65
2022/04/22 05:08:22;;;;;;;12.80;7.55;;;;;;;9.96;49.41;99004.50;4376690;32;35092;-68
2022/04/22 05:10:50;;;;;;;11.35;7.45;;;;;;;10.15;48.54;98997.53;4375886;32;34740;-65
2022/04/22 05:13:18;;;;;;;11.95;7.55;;;;;;;10.43;47.65;99007.16;4376809;32;33487;-66
2022/04/22 05:15:46;;;;;;;11.27;7.45;;;;;;;10.27;48.74;99005.44;4376781;32;34822;-65
2022/04/22 05:18:13;;;;;;;11.95;7.22;;;;;;;10.58;48.04;99006.41;4376727;32;34049;-67
2022/04/22 05:20:41;;;;;;;10.90;7.07;;;;;;;10.20;48.57;98994.84;4376497;32;33837;-66
2022/04/22 05:23:08;;;;;;;11.57;7.80;;;;;;;10.41;47.74;99016.63;4376732;32;33236;-65
2022/04/22 05:25:36;;;;;;;12.82;8.02;;;;;;;10.30;48.19;99015.75;4376189;32;33738;-65
2022/04/22 05:28:07;;;;;;;12.73;7.90;;;;;;;10.68;47.00;99016.44;4376797;32;34761;-63
2022/04/22 05:33:20;;;;;;;12.18;7.62;;;;;;;9.96;49.12;98999.88;4376540;32;34307;-68
2022/04/22 05:35:48;;;;;;;12.70;7.93;;;;;;;10.05;49.25;99003.72;4376444;32;33518;-64
2022/04/22 05:38:17;;;;;;;12.82;8.25;;;;;;;10.27;48.44;99010.84;4362853;32;32664;-68
2022/04/22 05:40:46;;;;;;;12.55;8.23;;;;;;;10.15;48.57;99013.78;4362660;32;33922;-68
2022/04/22 05:43:14;;;;;;;11.55;8.32;;;;;;;10.38;48.12;99009.03;4376510;32;34322;-69
2022/04/22 05:45:41;;;;;;;12.57;8.13;;;;;;;10.64;47.41;99005.31;4376760;32;33948;-69
2022/04/22 05:48:09;;;;;;;14.23;8.25;;;;;;;10.36;48.63;98995.72;4376154;32;35033;-67
2022/04/22 05:50:36;;;;;;;12.60;8.10;;;;;;;9.68;50.23;98997.56;4368143;32;34184;-69
2022/04/22 05:53:04;;;;;;;13.55;8.65;;;;;;;10.50;47.79;98997.97;4376439;32;33398;-68
2022/04/22 05:55:32;;;;;;;12.23;8.38;;;;;;;10.52;47.85;98993.91;4376156;32;33990;-69
2022/04/22 05:57:59;;;;;;;13.18;9.15;;;;;;;10.25;48.73;98992.12;4376167;32;35018;-69
2022/04/22 06:00:32;;;;;;;13.02;8.32;;;;;;;10.01;49.01;98983.62;4376728;32;34728;-65
2022/04/22 06:03:00;;;;;;;12.32;8.52;;;;;;;10.52;47.65;98987.63;4376052;32;33533;-63
2022/04/22 06:05:27;;;;;;;10.93;8.23;;;;;;;10.27;48.52;98991.88;4375905;32;33951;-64
2022/04/22 06:10:41;;;;;;;13.10;7.78;;;;;;;10.35;48.02;98985.97;4363999;32;34005;-64
2022/04/22 06:13:09;;;;;;;12.68;8.48;;;;;;;10.23;48.74;98982.63;4374521;32;33506;-67
2022/04/22 06:15:36;;;;;;;14.63;9.05;;;;;;;10.41;47.86;98975.94;4376094;32;34067;-68
2022/04/22 06:18:04;;;;;;;13.38;8.25;;;;;;;10.68;46.91;98981.19;4375824;32;34051;-67
2022/04/22 06:20:32;;;;;;;12.77;8.05;;;;;;;10.22;48.37;98970.97;4376034;32;34847;-63
2022/04/22 06:23:00;;;;;;;15.95;8.43;;;;;;;10.42;47.85;98972.16;4376060;32;33152;-65
2022/04/22 06:25:28;;;;;;;13.07;8.80;;;;;;;9.71;49.69;98972.63;4373035;32;33919;-68
2022/04/22 06:27:56;;;;;;;12.32;8.70;;;;;;;10.41;48.05;98971.34;4375967;32;34194;-63
2022/04/22 06:30:24;;;;;;;13.43;8.57;;;;;;;10.29;48.78;98965.34;4375677;32;33697;-67
2022/04/22 06:32:53;;;;;;;12.82;8.52;;;;;;;10.80;46.93;98970.91;4375406;32;33583;-69
2022/04/22 06:35:21;;;;;;;14.73;9.40;;;;;;;10.22;48.47;98970.19;4375802;32;33959;-67
2022/04/22 06:37:54;;;;;;;13.20;8.93;;;;;;;10.37;47.98;98966.75;4375796;32;35669;-66
2022/04/22 06:45:56;;;;;;;13.23;8.55;;;;;;;10.23;48.89;98959.03;4375454;32;33847;-62
2022/04/22 06:48:33;;;;;;;11.73;7.68;;;;;;;10.39;48.49;98970.00;4375378;32;34181;-68
2022/04/22 06:51:11;;;;;;;11.77;8.23;;;;;;;10.60;47.64;98960.81;4375518;32;34144;-65
2022/04/22 06:53:40;;;;;;;12.85;8.02;;;;;;;10.77;46.77;98970.59;4375034;32;33180;-64
2022/04/22 06:56:08;;;;;;;13.23;9.05;;;;;;;10.50;47.60;98958.09;4375162;32;33637;-64
2022/04/22 06:58:37;;;;;;;13.80;8.65;;;;;;;10.54;47.67;98963.78;4374867;32;34179;-68
2022/04/22 07:01:07;;;;;;;12.88;8.52;;;;;;;10.29;48.57;98959.91;4373811;32;34010;-62
2022/04/22 07:03:56;;;;;;;14.87;8.38;;;;;;;11.07;45.93;98958.97;4374998;32;34226;-64
2022/04/22 07:06:25;;;;;;;12.25;7.72;;;;;;;11.16;45.93;98960.03;4375228;32;34039;-64
2022/04/22 07:08:52;;;;;;;13.73;8.88;;;;;;;11.21;45.85;98967.38;4375096;32;33804;-65
2022/04/22 07:11:25;;;;;;;11.75;8.40;;;;;;;11.15;45.70;98968.47;4375436;32;34126;-64
2022/04/22 07:13:55;;;;;;;12.15;8.25;;;;;;;11.16;45.65;98976.34;4374947;32;33675;-65
2022/04/22 07:16:23;;;;;;;11.50;7.53;;;;;;;10.67;47.64;98966.00;4374309;32;34084;-63
2022/04/22 07:18:54;;;;;;;14.23;8.25;;;;;;;11.08;46.43;98966.84;4376242;32;35008;-63
2022/04/22 07:21:21;;;;;;;14.75;8.43;;;;;;;11.18;45.92;98966.03;4377584;32;33696;-63
2022/04/22 07:23:49;;;;;;;12.73;8.45;;;;;;;11.34;45.87;98968.72;4377022;32;34464;-63
2022/04/22 07:26:19;;;;;;;12.30;8.07;;;;;;;10.96;47.94;98973.63;4377534;32;33827;-64
2022/04/22 07:28:47;;;;;;;13.05;8.55;;;;;;;11.08;47.69;98971.47;4377323;32;33589;-64
2022/04/22 07:31:18;;;;;;;13.40;8.25;;;;;;;11.12;48.15;98963.56;4377084;32;33961;-63
2022/04/22 07:33:46;;;;;;;14.40;8.55;;;;;;;10.30;51.69;98966.97;4376905;32;33463;-62
2022/04/22 07:36:14;;;;;;;13.57;9.13;;;;;;;10.87;49.70;98963.31;4377349;32;34049;-64
2022/04/22 07:38:44;;;;;;;14.85;8.85;;;;;;;10.60;52.08;98955.38;4376930;32;34336;-64
2022/04/22 07:41:14;;;;;;;11.63;8.60;;;;;;;10.70;52.53;98954.59;4376729;32;34784;-64
2022/04/22 07:46:47;;;;;;;14.45;8.75;;;;;;;11.44;50.74;98955.13;4366007;32;34069;-65
2022/04/22 07:49:16;;;;;;;13.88;8.98;;;;;;;11.22;52.31;98947.28;4350970;32;33707;-66
2022/04/22 07:51:43;;;;;;;15.30;11.05;;;;;;;11.32;52.47;98957.31;4362169;32;33460;-68
2022/04/22 07:54:12;;;;;;;14.80;9.75;;;;;;;10.75;54.58;98951.06;4364359;32;33644;-68
2022/04/22 07:56:41;;;;;;;16.62;11.95;;;;;;;10.40;56.10;98953.44;4377307;32;33763;-67
2022/04/22 07:59:12;;;;;;;16.30;10.25;;;;;;;10.57;54.95;98947.78;4375798;32;33925;-68
2022/04/22 08:01:41;;;;;;;16.60;10.02;;;;;;;10.75;54.34;98951.06;4377262;32;34029;-66
2022/04/22 08:04:12;;;;;;;14.15;9.25;;;;;;;10.57;54.95;98953.22;4376268;32;34055;-67
2022/04/22 08:06:40;;;;;;;12.63;9.63;;;;;;;10.70;54.05;98954.59;4363101;32;33729;-66
2022/04/22 08:09:07;;;;;;;15.13;10.20;;;;;;;10.71;55.77;98958.13;4367385;32;34901;-69
2022/04/22 08:11:35;;;;;;;13.68;10.10;;;;;;;10.63;56.30;98948.63;4363006;32;34052;-66
2022/04/22 08:14:03;;;;;;;14.10;9.75;;;;;;;10.33;56.63;98960.22;4377545;32;33351;-66
2022/04/22 08:16:30;;;;;;;15.77;9.82;;;;;;;10.31;56.89;98954.25;4378175;32;34926;-68
2022/04/22 08:18:58;;;;;;;15.15;10.27;;;;;;;10.53;57.80;98949.41;4364463;32;34296;-69
2022/04/22 08:21:33;;;;;;;15.45;10.93;;;;;;;10.72;58.59;98951.63;4377477;32;34018;-66
2022/04/22 08:24:02;;;;;;;16.17;10.90;;;;;;;10.25;60.21;98947.94;4364694;32;33841;-66
2022/04/22 08:26:32;;;;;;;17.37;11.68;;;;;;;10.43;61.03;98949.37;4364211;32;34095;-66
2022/04/22 08:28:59;;;;;;;17.50;11.60;;;;;;;10.25;61.03;98950.66;4364524;32;34093;-66
2022/04/22 08:31:27;;;;;;;15.55;11.65;;;;;;;10.06;63.86;98950.31;4378044;32;33769;-67
2022/04/22 08:33:57;;;;;;;16.92;11.73;;;;;;;10.41;62.82;98941.53;4377938;32;33621;-65
2022/04/22 08:36:27;;;;;;;17.77;11.93;;;;;;;9.96;63.89;98942.16;4378220;32;34002;-65
2022/04/22 08:38:57;;;;;;;17.67;12.02;;;;;;;9.67;66.02;98934.41;4378017;32;34090;-68
2022/04/22 08:41:25;;;;;;;17.58;12.88;;;;;;;9.74;65.96;98940.44;4364283;32;33367;-65
2022/04/22 08:43:58;;;;;;;19.48;12.37;;;;;;;9.36;69.79;98934.25;4377837;32;34416;-65
2022/04/22 08:52:00;;;;;;;18.60;12.80;;;;;;;10.12;67.94;98921.34;4366304;32;34575;-70
2022/04/22 08:54:29;;;;;;;18.20;12.95;;;;;;;9.68;69.38;98916.28;4364748;32;33628;-66
2022/04/22 08:56:57;;;;;;;19.90;13.38;;;;;;;9.68;70.49;98919.81;4361123;32;34100;-67
2022/04/22 08:59:25;;;;;;;20.30;13.25;;;;;;;9.70;70.17;98917.66;4375455;32;35394;-64
2022/04/22 09:01:57;;;;;;;18.65;12.60;;;;;;;10.13;69.95;98912.13;4377930;32;34703;-66
2022/04/22 09:04:26;;;;;;;20.20;12.95;;;;;;;10.06;70.95;98907.78;4377784;32;33549;-68
2022/04/22 09:06:54;;;;;;;21.27;14.15;;;;;;;10.09;71.22;98900.22;4377664;32;34006;-66
2022/04/22 09:09:23;;;;;;;19.85;13.93;;;;;;;9.73;73.70;98890.03;4364558;32;34152;-66
2022/04/22 09:11:52;;;;;;;22.35;14.32;;;;;;;9.63;75.36;98879.97;4377283;32;34793;-67
2022/04/22 09:14:23;;;;;;;20.67;14.13;;;;;;;10.00;74.12;98889.03;4364560;32;33772;-65
2022/04/22 09:16:51;;;;;;;20.23;13.60;;;;;;;9.73;76.32;98881.09;4364436;32;34011;-66
2022/04/22 09:19:18;;;;;;;18.98;12.80;;;;;;;9.92;74.97;98878.75;4377887;32;34220;-65
2022/04/22 09:21:57;;;;;;;20.15;14.68;;;;;;;9.22;79.71;98876.22;4377562;32;34763;-65
2022/04/22 09:24:25;;;;;;;21.98;14.35;;;;;;;9.22;80.58;98874.34;4377720;32;34391;-65
2022/04/22 09:27:11;;;;;;;20.83;14.30;;;;;;;9.54;79.91;98867.19;4377597;32;33949;-67
2022/04/22 09:29:43;;;;;;;21.45;14.48;;;;;;;9.08;82.29;98854.22;4377794;32;34215;-70
2022/04/22 09:32:11;;;;;;;22.02;14.13;;;;;;;9.37;81.52;98857.37;4378076;32;34492;-63
2022/04/22 09:34:42;;;;;;;18.80;13.43;;;;;;;9.96;78.30;98858.16;4364679;32;33630;-63
2022/04/22 09:43:21;;;;;;;20.33;13.75;;;;;;;9.85;78.70;98841.06;4330157;33;34506;-68
2022/04/22 09:45:51;;;;;;;21.50;14.38;;;;;;;9.78;77.81;98824.22;4330729;33;33548;-68
2022/04/22 09:48:20;;;;;;;20.65;14.65;;;;;;;9.98;77.20;98837.03;4354994;32;34678;-67
2022/04/22 09:50:55;;;;;;;21.48;14.85;;;;;;;9.91;78.37;98833.75;4377254;32;34241;-62
2022/04/22 09:53:33;;;;;;;21.70;14.23;;;;;;;10.00;77.42;98834.84;4377414;32;33782;-62
2022/04/22 09:56:06;;;;;;;19.52;14.00;;;;;;;10.16;76.67;98825.66;4377429;32;33614;-64
2022/04/22 09:58:34;;;;;;;19.83;14.30;;;;;;;10.26;76.84;98833.81;4377201;32;34137;-67
2022/04/22 10:01:06;;;;;;;21.73;14.25;;;;;;;10.40;76.06;98841.47;4377417;32;34327;-65
2022/04/22 10:03:37;;;;;;;21.40;14.32;;;;;;;9.87;77.38;98833.47;4363930;32;34193;-64
2022/04/22 10:06:05;;;;;;;18.45;12.85;;;;;;;9.90;77.78;98842.97;4377636;32;33800;-64
2022/04/22 10:08:37;;;;;;;22.40;15.32;;;;;;;9.77;77.64;98844.28;4377311;32;33653;-63
2022/04/22 10:11:06;;;;;;;20.17;14.00;;;;;;;9.91;78.57;98834.53;4377247;32;34111;-64
2022/04/22 10:14:00;;;;;;;27.20;15.88;;;;;;;10.04;77.39;98831.34;4376944;32;34071;-64
2022/04/22 10:16:27;;;;;;;18.27;12.95;;;;;;;10.07;77.21;98827.28;4361209;32;34095;-67
2022/04/22 10:18:55;;;;;;;19.95;13.30;;;;;;;9.86;77.63;98823.72;4376947;32;33903;-65
2022/04/22 10:21:23;;;;;;;18.73;13.10;;;;;;;10.40;76.41;98822.47;4377128;32;34086;-66
2022/04/22 10:23:52;;;;;;;21.10;14.05;;;;;;;10.20;76.96;98820.53;4363399;32;33827;-66
2022/04/22 10:26:20;;;;;;;18.50;12.65;;;;;;;10.36;75.96;98811.34;4377390;32;33670;-66
2022/04/22 10:28:48;;;;;;;19.33;13.55;;;;;;;10.82;74.31;98805.94;4363656;32;33941;-65
2022/04/22 10:31:16;;;;;;;20.50;13.77;;;;;;;10.82;74.01;98808.62;4363595;32;35105;-66
2022/04/22 10:33:45;;;;;;;16.33;12.15;;;;;;;10.96;72.82;98811.59;4363389;32;33863;-67
2022/04/22 10:36:17;;;;;;;17.73;12.57;;;;;;;10.38;74.00;98814.59;4364762;32;33509;-68
2022/04/22 10:38:46;;;;;;;21.85;14.02;;;;;;;10.44;74.67;98810.81;4363558;32;34672;-66
2022/04/22 10:41:21;;;;;;;17.70;12.85;;;;;;;10.26;74.92;98806.72;4376621;32;34355;-66
2022/04/22 10:49:44;;;;;;;19.33;14.02;;;;;;;9.73;76.87;98787.09;4364941;32;33749;-65
2022/04/22 10:52:18;;;;;;;18.42;13.13;;;;;;;9.89;77.42;98787.94;4377497;32;34071;-65
2022/04/22 10:54:52;;;;;;;20.40;14.23;;;;;;;10.22;76.43;98785.84;4378486;32;34708;-66
2022/04/22 10:57:32;;;;;;;20.55;14.27;;;;;;;10.48;75.64;98786.69;4378668;32;33765;-65
2022/04/22 11:00:03;;;;;;;18.10;12.63;;;;;;;10.39;75.59;98785.62;4378430;32;33765;-66
2022/04/22 11:02:32;;;;;;;15.90;11.95;;;;;;;10.06;76.09;98783.13;4378074;32;34003;-66
2022/04/22 11:05:20;;;;;;;16.40;12.02;;;;;;;10.18;77.13;98784.75;4365336;32;33852;-65
2022/04/22 11:07:50;;;;;;;16.75;11.85;;;;;;;10.34;75.96;98780.97;4378800;32;34019;-68
2022/04/22 11:10:18;;;;;;;16.45;11.77;;;;;;;10.68;73.99;98778.53;4378599;32;33572;-66
2022/04/22 11:12:59;;;;;;;15.77;10.75;;;;;;;10.38;74.36;98771.22;4364765;32;33891;-65
2022/04/22 11:15:42;;;;;;;17.05;11.12;;;;;;;10.46;74.26;98775.31;4378534;32;34736;-66
2022/04/22 11:18:10;;;;;;;16.15;11.48;;;;;;;10.83;72.71;98760.59;4378544;32;33492;-66
2022/04/22 11:20:47;;;;;;;17.42;12.43;;;;;;;10.68;72.83;98748.69;4365011;32;34077;-66
2022/04/22 11:23:15;;;;;;;16.48;11.73;;;;;;;10.92;73.96;98766.28;4364719;32;33965;-66
2022/04/22 11:25:46;;;;;;;16.20;11.60;;;;;;;10.92;72.57;98771.72;4360723;32;33869;-68
2022/04/22 11:28:14;;;;;;;16.40;11.30;;;;;;;10.98;70.21;98765.19;4348966;32;33122;-68
2022/04/22 11:30:42;;;;;;;15.90;10.15;;;;;;;11.23;68.57;98756.13;4362113;32;33807;-66
2022/04/22 11:33:19;;;;;;;17.05;10.95;;;;;;;11.10;68.91;98763.00;4367204;32;35338;-66
2022/04/22 11:35:53;;;;;;;14.85;10.52;;;;;;;11.26;67.75;98761.81;4377104;32;33837;-67
2022/04/22 11:38:21;;;;;;;15.20;10.95;;;;;;;11.25;68.87;98760.22;4364124;32;33461;-67
2022/04/22 11:40:51;;;;;;;14.60;10.40;;;;;;;11.46;66.88;98749.25;4376876;32;34769;-66
2022/04/22 11:43:36;;;;;;;15.18;10.85;;;;;;;11.09;66.96;98756.72;4365709;32;35108;-66
2022/04/22 11:46:04;;;;;;;15.02;10.18;;;;;;;11.36;65.71;98752.00;4376252;32;35014;-67
2022/04/22 11:48:31;;;;;;;14.27;9.85;;;;;;;11.83;64.46;98756.09;4377086;32;33692;-67
2022/04/22 11:51:00;;;;;;;13.70;10.10;;;;;;;11.79;64.17;98753.16;4363648;32;33965;-66
2022/04/22 11:53:32;;;;;;;12.32;9.13;;;;;;;11.98;63.54;98749.78;4377244;32;34379;-67
2022/04/22 11:56:01;;;;;;;15.40;10.20;;;;;;;12.02;61.32;98735.34;4359903;32;33847;-67
2022/04/22 11:58:28;;;;;;;12.52;9.25;;;;;;;11.72;62.11;98730.91;4348795;32;33571;-66
2022/04/22 12:06:42;;;;;;;13.27;9.35;;;;;;;12.00;61.59;98712.28;4377102;32;34672;-66
2022/04/22 12:09:10;;;;;;;11.15;8.20;;;;;;;12.43;57.59;98696.94;4376943;32;33880;-65
2022/04/22 12:11:43;;;;;;;16.48;8.93;;;;;;;11.88;58.69;98702.56;4376292;32;34003;-65
2022/04/22 12:14:12;;;;;;;12.37;8.57;;;;;;;12.08;59.19;98714.38;4363276;32;35124;-66
2022/04/22 12:16:41;;;;;;;11.12;7.60;;;;;;;12.44;57.94;98701.28;4363320;32;33682;-66
2022/04/22 12:19:11;;;;;;;10.55;7.53;;;;;;;12.81;55.05;98691.66;4376873;32;33393;-68
2022/04/22 12:21:39;;;;;;;10.13;7.47;;;;;;;12.76;55.50;98691.69;4363438;32;34931;-67
2022/04/22 12:24:06;;;;;;;11.50;8.02;;;;;;;12.89;54.49;98668.41;4363577;32;35091;-68
2022/04/22 12:26:44;;;;;;;10.52;7.18;;;;;;;12.76;53.76;98671.84;4376693;32;33983;-67
2022/04/22 12:29:16;;;;;;;11.02;7.68;;;;;;;12.84;52.11;98690.25;4376653;32;31636;-66
2022/04/22 12:31:55;;;;;;;11.32;8.07;;;;;;;12.68;52.33;98681.47;4376858;32;34446;-66